Карточка аэропорта UUYY

Внимание!
Информация на этой странице в стадии наполнения.
Если вы не увидели какой-то информации, или заметили неточность - пожалуйста сообщите нам!
Спасибо!
Команда RU-STAFF
Название аэропортаСыктывкар
Название аэропорта (англ.)Syktyvkar
Превышение339 ft. (103.3 m.)
Координаты61°38.502', 50°50.298'
Высота перехода3000 feet
Эшелон переходаQNH>=1013hPa:FL040; QNH<1013hPa:FL050; QNH<977hPa:FL060
Коды ответчика3130-3134, 5752-5757, 5770-5777, 6701-6717
Зона ОрВДСанкт-Петербург РПИ (ULLL)
Данные METARUUYY 200230Z 32002MPS 280V020 9999 -SHRA FEW008 BKN023CB 17/16 Q0998 R36/29//51 NOSIG RMK QFE740/0987
Проноз погоды (TAF)UUYY 200200Z 2003/2103 32003G10MPS 6000 -SHRA FEW011 BKN017CB TEMPO 2003/2006 1000 TSRA BR BKN004 BKN016CB TEMPO 2006/2015 28005G14MPS -TSRA FEW005 BKN016CB BECMG 2015/2017 20003G08MPS TEMPO 2021/2103 0500 -TSRA FG BKN003 BKN016CB
NOTAMshow/hide NOTAM
AWOS   TABLE

Информация о ВПП

ВПП Длина ВПП (м.) Покрытие Курс ВПП Частота ILS
012500Асфальтобетон6108.3
192500Асфальтобетон186111.7

Диспетчерские позиции

Позывной Наименование органа УВД Частота
UUYY_TWRСивкар-Старт124.600
UUYY_R_APPСивкар-Круг124.600



Спутниковое изображение